sensor_id;sensor_type;location;lat;lon;timestamp;temperature;humidity
59847;DHT22;45728;48.788;2.302;2023-09-18T00:00:44;19.70;99.90
59847;DHT22;45728;48.788;2.302;2023-09-18T00:03:11;19.60;99.90
59847;DHT22;45728;48.788;2.302;2023-09-18T00:05:37;19.70;99.90
59847;DHT22;45728;48.788;2.302;2023-09-18T00:08:03;19.60;99.90
59847;DHT22;45728;48.788;2.302;2023-09-18T00:10:29;19.60;99.90
59847;DHT22;45728;48.788;2.302;2023-09-18T00:12:57;19.50;99.90
59847;DHT22;45728;48.788;2.302;2023-09-18T00:15:23;19.40;99.90
59847;DHT22;45728;48.788;2.302;2023-09-18T00:17:49;19.40;99.90
59847;DHT22;45728;48.788;2.302;2023-09-18T00:20:15;19.40;99.90
59847;DHT22;45728;48.788;2.302;2023-09-18T00:22:44;19.40;99.90
59847;DHT22;45728;48.788;2.302;2023-09-18T00:25:10;19.30;99.90
59847;DHT22;45728;48.788;2.302;2023-09-18T00:27:36;19.30;99.90
59847;DHT22;45728;48.788;2.302;2023-09-18T00:30:04;19.30;99.90
59847;DHT22;45728;48.788;2.302;2023-09-18T00:32:30;19.30;99.90
59847;DHT22;45728;48.788;2.302;2023-09-18T00:34:56;19.10;99.90
59847;DHT22;45728;48.788;2.302;2023-09-18T00:37:22;19.10;99.90
59847;DHT22;45728;48.788;2.302;2023-09-18T00:39:49;19.00;99.90
59847;DHT22;45728;48.788;2.302;2023-09-18T00:42:15;19.00;99.90
59847;DHT22;45728;48.788;2.302;2023-09-18T00:44:44;18.90;99.90
59847;DHT22;45728;48.788;2.302;2023-09-18T00:47:10;18.90;99.90
59847;DHT22;45728;48.788;2.302;2023-09-18T00:49:38;18.90;99.90
59847;DHT22;45728;48.788;2.302;2023-09-18T00:52:07;18.70;99.90
59847;DHT22;45728;48.788;2.302;2023-09-18T00:54:34;18.70;99.90
59847;DHT22;45728;48.788;2.302;2023-09-18T00:57:03;18.70;99.90
59847;DHT22;45728;48.788;2.302;2023-09-18T00:59:29;18.60;99.90
59847;DHT22;45728;48.788;2.302;2023-09-18T01:01:55;18.50;99.90
59847;DHT22;45728;48.788;2.302;2023-09-18T01:04:22;18.50;99.90
59847;DHT22;45728;48.788;2.302;2023-09-18T01:06:48;18.50;99.90
59847;DHT22;45728;48.788;2.302;2023-09-18T01:09:17;18.60;99.90
59847;DHT22;45728;48.788;2.302;2023-09-18T01:14:51;18.50;99.90
59847;DHT22;45728;48.788;2.302;2023-09-18T01:17:20;18.40;99.90
59847;DHT22;45728;48.788;2.302;2023-09-18T01:19:47;18.40;99.90
59847;DHT22;45728;48.788;2.302;2023-09-18T01:22:32;18.40;99.90
59847;DHT22;45728;48.788;2.302;2023-09-18T01:24:58;18.40;99.90
59847;DHT22;45728;48.788;2.302;2023-09-18T01:27:24;18.40;99.90
59847;DHT22;45728;48.788;2.302;2023-09-18T01:29:50;18.40;99.90
59847;DHT22;45728;48.788;2.302;2023-09-18T01:32:16;18.30;99.90
59847;DHT22;45728;48.788;2.302;2023-09-18T01:34:47;18.30;99.90
59847;DHT22;45728;48.788;2.302;2023-09-18T01:37:16;18.30;99.90
59847;DHT22;45728;48.788;2.302;2023-09-18T01:39:44;18.40;99.90
59847;DHT22;45728;48.788;2.302;2023-09-18T01:42:11;18.40;99.90
59847;DHT22;45728;48.788;2.302;2023-09-18T01:44:37;18.30;99.90
59847;DHT22;45728;48.788;2.302;2023-09-18T01:47:06;18.30;99.90
59847;DHT22;45728;48.788;2.302;2023-09-18T01:49:34;18.30;99.90
59847;DHT22;45728;48.788;2.302;2023-09-18T01:52:01;18.30;99.90
59847;DHT22;45728;48.788;2.302;2023-09-18T01:54:27;18.30;99.90
59847;DHT22;45728;48.788;2.302;2023-09-18T01:56:53;18.20;99.90
59847;DHT22;45728;48.788;2.302;2023-09-18T01:59:20;18.30;99.90
59847;DHT22;45728;48.788;2.302;2023-09-18T02:01:46;18.30;99.90
59847;DHT22;45728;48.788;2.302;2023-09-18T02:04:12;18.30;99.90
59847;DHT22;45728;48.788;2.302;2023-09-18T02:06:38;18.30;99.90
59847;DHT22;45728;48.788;2.302;2023-09-18T02:09:05;18.30;99.90
59847;DHT22;45728;48.788;2.302;2023-09-18T02:11:42;18.20;99.90
59847;DHT22;45728;48.788;2.302;2023-09-18T02:14:09;18.20;99.90
59847;DHT22;45728;48.788;2.302;2023-09-18T02:16:37;18.20;99.90
59847;DHT22;45728;48.788;2.302;2023-09-18T02:19:04;18.20;99.90
59847;DHT22;45728;48.788;2.302;2023-09-18T02:21:31;18.20;99.90
59847;DHT22;45728;48.788;2.302;2023-09-18T02:23:57;18.10;99.90
59847;DHT22;45728;48.788;2.302;2023-09-18T02:26:24;18.10;99.90
59847;DHT22;45728;48.788;2.302;2023-09-18T02:28:54;18.10;99.90
59847;DHT22;45728;48.788;2.302;2023-09-18T02:31:21;18.10;99.90
59847;DHT22;45728;48.788;2.302;2023-09-18T02:33:47;18.20;99.90
59847;DHT22;45728;48.788;2.302;2023-09-18T02:36:13;18.10;99.90
59847;DHT22;45728;48.788;2.302;2023-09-18T02:38:39;18.10;99.90
59847;DHT22;45728;48.788;2.302;2023-09-18T02:41:06;18.20;99.90
59847;DHT22;45728;48.788;2.302;2023-09-18T02:43:32;18.20;99.90
59847;DHT22;45728;48.788;2.302;2023-09-18T02:45:58;18.20;99.90
59847;DHT22;45728;48.788;2.302;2023-09-18T02:48:24;18.20;99.90
59847;DHT22;45728;48.788;2.302;2023-09-18T02:50:50;18.20;99.90
59847;DHT22;45728;48.788;2.302;2023-09-18T02:53:21;18.20;99.90
59847;DHT22;45728;48.788;2.302;2023-09-18T02:55:51;18.20;99.90
59847;DHT22;45728;48.788;2.302;2023-09-18T02:58:18;18.20;99.90
59847;DHT22;45728;48.788;2.302;2023-09-18T03:00:46;18.30;99.90
59847;DHT22;45728;48.788;2.302;2023-09-18T03:03:13;18.20;99.90
59847;DHT22;45728;48.788;2.302;2023-09-18T03:05:40;18.20;99.90
59847;DHT22;45728;48.788;2.302;2023-09-18T03:08:06;18.20;99.90
59847;DHT22;45728;48.788;2.302;2023-09-18T03:10:36;18.30;99.90
59847;DHT22;45728;48.788;2.302;2023-09-18T03:13:04;18.20;99.90
59847;DHT22;45728;48.788;2.302;2023-09-18T03:15:30;18.30;99.90
59847;DHT22;45728;48.788;2.302;2023-09-18T03:17:58;18.30;99.90
59847;DHT22;45728;48.788;2.302;2023-09-18T03:20:25;18.30;99.90
59847;DHT22;45728;48.788;2.302;2023-09-18T03:22:59;18.30;99.90
59847;DHT22;45728;48.788;2.302;2023-09-18T03:25:26;18.30;99.90
59847;DHT22;45728;48.788;2.302;2023-09-18T03:27:54;18.30;99.90
59847;DHT22;45728;48.788;2.302;2023-09-18T03:30:20;18.30;99.90
59847;DHT22;45728;48.788;2.302;2023-09-18T03:32:47;18.30;99.90
59847;DHT22;45728;48.788;2.302;2023-09-18T03:35:17;18.30;99.90
59847;DHT22;45728;48.788;2.302;2023-09-18T03:37:48;18.20;99.90
59847;DHT22;45728;48.788;2.302;2023-09-18T03:40:15;18.20;99.90
59847;DHT22;45728;48.788;2.302;2023-09-18T03:42:41;18.20;99.90
59847;DHT22;45728;48.788;2.302;2023-09-18T03:45:08;18.30;99.90
59847;DHT22;45728;48.788;2.302;2023-09-18T03:47:35;18.20;99.90
59847;DHT22;45728;48.788;2.302;2023-09-18T03:50:02;18.30;99.90
59847;DHT22;45728;48.788;2.302;2023-09-18T03:52:28;18.20;99.90
59847;DHT22;45728;48.788;2.302;2023-09-18T03:54:55;18.20;99.90
59847;DHT22;45728;48.788;2.302;2023-09-18T03:57:21;18.20;99.90
59847;DHT22;45728;48.788;2.302;2023-09-18T03:59:47;18.20;99.90
59847;DHT22;45728;48.788;2.302;2023-09-18T04:02:13;18.20;99.90
59847;DHT22;45728;48.788;2.302;2023-09-18T04:04:39;18.30;99.90
59847;DHT22;45728;48.788;2.302;2023-09-18T04:07:06;18.30;99.90
59847;DHT22;45728;48.788;2.302;2023-09-18T04:09:32;18.30;99.90
59847;DHT22;45728;48.788;2.302;2023-09-18T04:12:04;18.30;99.90
59847;DHT22;45728;48.788;2.302;2023-09-18T04:14:32;18.30;99.90
59847;DHT22;45728;48.788;2.302;2023-09-18T04:16:58;18.30;99.90
59847;DHT22;45728;48.788;2.302;2023-09-18T04:19:24;18.20;99.90
59847;DHT22;45728;48.788;2.302;2023-09-18T04:21:50;18.30;99.90
59847;DHT22;45728;48.788;2.302;2023-09-18T04:24:16;18.30;99.90
59847;DHT22;45728;48.788;2.302;2023-09-18T04:26:42;18.30;99.90
59847;DHT22;45728;48.788;2.302;2023-09-18T04:29:08;18.20;99.90
59847;DHT22;45728;48.788;2.302;2023-09-18T04:31:35;18.30;99.90
59847;DHT22;45728;48.788;2.302;2023-09-18T04:34:01;18.30;99.90
59847;DHT22;45728;48.788;2.302;2023-09-18T04:36:27;18.30;99.90
59847;DHT22;45728;48.788;2.302;2023-09-18T04:38:53;18.30;99.90
59847;DHT22;45728;48.788;2.302;2023-09-18T04:41:20;18.30;99.90
59847;DHT22;45728;48.788;2.302;2023-09-18T04:43:46;18.40;99.90
59847;DHT22;45728;48.788;2.302;2023-09-18T04:46:12;18.30;99.90
59847;DHT22;45728;48.788;2.302;2023-09-18T04:48:38;18.40;99.90
59847;DHT22;45728;48.788;2.302;2023-09-18T04:51:04;18.30;99.90
59847;DHT22;45728;48.788;2.302;2023-09-18T04:53:31;18.30;99.90
59847;DHT22;45728;48.788;2.302;2023-09-18T04:55:58;18.30;99.90
59847;DHT22;45728;48.788;2.302;2023-09-18T04:58:24;18.30;99.90
59847;DHT22;45728;48.788;2.302;2023-09-18T05:00:54;18.30;99.90
59847;DHT22;45728;48.788;2.302;2023-09-18T05:03:20;18.30;99.90
59847;DHT22;45728;48.788;2.302;2023-09-18T05:05:47;18.30;99.90
59847;DHT22;45728;48.788;2.302;2023-09-18T05:08:13;18.30;99.90
59847;DHT22;45728;48.788;2.302;2023-09-18T05:10:39;18.30;99.90
59847;DHT22;45728;48.788;2.302;2023-09-18T05:13:05;18.40;99.90
59847;DHT22;45728;48.788;2.302;2023-09-18T05:15:32;18.30;99.90
59847;DHT22;45728;48.788;2.302;2023-09-18T05:18:00;18.30;99.90
59847;DHT22;45728;48.788;2.302;2023-09-18T05:20:28;18.30;99.90
59847;DHT22;45728;48.788;2.302;2023-09-18T05:22:55;18.30;99.90
59847;DHT22;45728;48.788;2.302;2023-09-18T05:25:23;18.30;99.90
59847;DHT22;45728;48.788;2.302;2023-09-18T05:27:51;18.30;99.90
59847;DHT22;45728;48.788;2.302;2023-09-18T05:30:27;18.40;99.90
59847;DHT22;45728;48.788;2.302;2023-09-18T05:32:57;18.40;99.90
59847;DHT22;45728;48.788;2.302;2023-09-18T05:35:23;18.40;99.90
59847;DHT22;45728;48.788;2.302;2023-09-18T05:37:50;18.40;99.90
59847;DHT22;45728;48.788;2.302;2023-09-18T05:40:20;18.40;99.90
59847;DHT22;45728;48.788;2.302;2023-09-18T05:42:46;18.40;99.90
59847;DHT22;45728;48.788;2.302;2023-09-18T05:45:14;18.40;99.90
59847;DHT22;45728;48.788;2.302;2023-09-18T05:47:40;18.40;99.90
59847;DHT22;45728;48.788;2.302;2023-09-18T05:50:09;18.40;99.90
59847;DHT22;45728;48.788;2.302;2023-09-18T05:52:35;18.40;99.90
59847;DHT22;45728;48.788;2.302;2023-09-18T05:55:02;18.40;99.90
59847;DHT22;45728;48.788;2.302;2023-09-18T05:57:28;18.40;99.90
59847;DHT22;45728;48.788;2.302;2023-09-18T05:59:55;18.40;99.90
59847;DHT22;45728;48.788;2.302;2023-09-18T06:02:22;18.50;99.90
59847;DHT22;45728;48.788;2.302;2023-09-18T06:04:49;18.50;99.90
59847;DHT22;45728;48.788;2.302;2023-09-18T06:07:15;18.50;99.90
59847;DHT22;45728;48.788;2.302;2023-09-18T06:09:41;18.50;99.90
59847;DHT22;45728;48.788;2.302;2023-09-18T06:12:07;18.50;99.90
59847;DHT22;45728;48.788;2.302;2023-09-18T06:14:35;18.40;99.90
59847;DHT22;45728;48.788;2.302;2023-09-18T06:17:04;18.40;99.90
59847;DHT22;45728;48.788;2.302;2023-09-18T06:19:30;18.40;99.90
59847;DHT22;45728;48.788;2.302;2023-09-18T06:21:56;18.50;99.90
59847;DHT22;45728;48.788;2.302;2023-09-18T06:24:22;18.50;99.90
59847;DHT22;45728;48.788;2.302;2023-09-18T06:26:48;18.50;99.90
59847;DHT22;45728;48.788;2.302;2023-09-18T06:29:14;18.50;99.90
59847;DHT22;45728;48.788;2.302;2023-09-18T06:31:40;18.50;99.90
59847;DHT22;45728;48.788;2.302;2023-09-18T06:34:06;18.50;99.90
59847;DHT22;45728;48.788;2.302;2023-09-18T06:36:32;18.50;99.90
59847;DHT22;45728;48.788;2.302;2023-09-18T06:38:58;18.50;99.90
59847;DHT22;45728;48.788;2.302;2023-09-18T06:41:24;18.50;99.90
59847;DHT22;45728;48.788;2.302;2023-09-18T06:43:50;18.50;99.90
59847;DHT22;45728;48.788;2.302;2023-09-18T06:46:16;18.50;99.90
59847;DHT22;45728;48.788;2.302;2023-09-18T06:48:43;18.50;99.90
59847;DHT22;45728;48.788;2.302;2023-09-18T06:51:11;18.60;99.90
59847;DHT22;45728;48.788;2.302;2023-09-18T06:53:37;18.60;99.90
59847;DHT22;45728;48.788;2.302;2023-09-18T06:56:03;18.70;99.90
59847;DHT22;45728;48.788;2.302;2023-09-18T06:58:30;18.60;99.90
59847;DHT22;45728;48.788;2.302;2023-09-18T07:00:57;18.70;99.90
59847;DHT22;45728;48.788;2.302;2023-09-18T07:03:23;18.70;99.90
59847;DHT22;45728;48.788;2.302;2023-09-18T07:05:49;18.70;99.90
59847;DHT22;45728;48.788;2.302;2023-09-18T07:08:15;18.70;99.90
59847;DHT22;45728;48.788;2.302;2023-09-18T07:10:45;18.80;99.90
59847;DHT22;45728;48.788;2.302;2023-09-18T07:13:11;18.80;99.90
59847;DHT22;45728;48.788;2.302;2023-09-18T07:15:37;18.80;99.90
59847;DHT22;45728;48.788;2.302;2023-09-18T07:18:03;18.80;99.90
59847;DHT22;45728;48.788;2.302;2023-09-18T07:20:30;19.00;99.90
59847;DHT22;45728;48.788;2.302;2023-09-18T07:22:56;19.00;99.90
59847;DHT22;45728;48.788;2.302;2023-09-18T07:25:22;19.00;99.90
59847;DHT22;45728;48.788;2.302;2023-09-18T07:27:48;19.00;99.90
59847;DHT22;45728;48.788;2.302;2023-09-18T07:30:15;19.10;99.90
59847;DHT22;45728;48.788;2.302;2023-09-18T07:32:42;19.10;99.90
59847;DHT22;45728;48.788;2.302;2023-09-18T07:35:11;19.00;99.90
59847;DHT22;45728;48.788;2.302;2023-09-18T07:37:39;19.10;99.90
59847;DHT22;45728;48.788;2.302;2023-09-18T07:40:06;19.00;99.90
59847;DHT22;45728;48.788;2.302;2023-09-18T07:42:33;19.10;99.90
59847;DHT22;45728;48.788;2.302;2023-09-18T07:44:59;19.10;99.90
59847;DHT22;45728;48.788;2.302;2023-09-18T07:47:25;19.20;99.90
59847;DHT22;45728;48.788;2.302;2023-09-18T07:49:51;19.20;99.90
59847;DHT22;45728;48.788;2.302;2023-09-18T07:52:20;19.30;99.90
59847;DHT22;45728;48.788;2.302;2023-09-18T07:54:46;19.30;99.90
59847;DHT22;45728;48.788;2.302;2023-09-18T07:57:12;19.30;99.90
59847;DHT22;45728;48.788;2.302;2023-09-18T07:59:39;19.40;99.90
59847;DHT22;45728;48.788;2.302;2023-09-18T08:02:07;19.50;99.90
59847;DHT22;45728;48.788;2.302;2023-09-18T08:04:35;19.50;99.90
59847;DHT22;45728;48.788;2.302;2023-09-18T08:07:01;19.60;99.90
59847;DHT22;45728;48.788;2.302;2023-09-18T08:09:27;19.70;99.90
59847;DHT22;45728;48.788;2.302;2023-09-18T08:11:56;19.80;99.90
59847;DHT22;45728;48.788;2.302;2023-09-18T08:14:22;19.80;99.90
59847;DHT22;45728;48.788;2.302;2023-09-18T08:16:56;19.70;99.90
59847;DHT22;45728;48.788;2.302;2023-09-18T08:19:23;19.60;99.90
59847;DHT22;45728;48.788;2.302;2023-09-18T08:21:49;19.70;99.90
59847;DHT22;45728;48.788;2.302;2023-09-18T08:24:15;19.80;99.90
59847;DHT22;45728;48.788;2.302;2023-09-18T08:26:41;19.80;99.90
59847;DHT22;45728;48.788;2.302;2023-09-18T08:29:07;20.00;99.90
59847;DHT22;45728;48.788;2.302;2023-09-18T08:31:35;20.10;99.90
59847;DHT22;45728;48.788;2.302;2023-09-18T08:34:01;20.20;99.90
59847;DHT22;45728;48.788;2.302;2023-09-18T08:36:27;20.20;99.90
59847;DHT22;45728;48.788;2.302;2023-09-18T08:38:56;20.10;99.90
59847;DHT22;45728;48.788;2.302;2023-09-18T08:41:24;20.10;99.90
59847;DHT22;45728;48.788;2.302;2023-09-18T08:44:02;20.20;99.90
59847;DHT22;45728;48.788;2.302;2023-09-18T08:46:30;20.30;99.90
59847;DHT22;45728;48.788;2.302;2023-09-18T08:49:00;20.40;99.90
59847;DHT22;45728;48.788;2.302;2023-09-18T08:51:27;20.40;99.90
59847;DHT22;45728;48.788;2.302;2023-09-18T08:53:54;20.30;99.90
59847;DHT22;45728;48.788;2.302;2023-09-18T08:56:21;20.40;99.90
59847;DHT22;45728;48.788;2.302;2023-09-18T08:58:48;20.50;99.90
59847;DHT22;45728;48.788;2.302;2023-09-18T09:01:15;20.50;99.90
59847;DHT22;45728;48.788;2.302;2023-09-18T09:03:42;20.60;99.90
59847;DHT22;45728;48.788;2.302;2023-09-18T09:06:12;20.80;99.90
59847;DHT22;45728;48.788;2.302;2023-09-18T09:08:38;20.80;99.90
59847;DHT22;45728;48.788;2.302;2023-09-18T09:11:05;20.80;99.90
59847;DHT22;45728;48.788;2.302;2023-09-18T09:13:31;20.90;99.90
59847;DHT22;45728;48.788;2.302;2023-09-18T09:15:58;21.10;99.90
59847;DHT22;45728;48.788;2.302;2023-09-18T09:18:26;21.00;99.90
59847;DHT22;45728;48.788;2.302;2023-09-18T09:21:00;21.00;99.90
59847;DHT22;45728;48.788;2.302;2023-09-18T09:23:47;21.20;99.90
59847;DHT22;45728;48.788;2.302;2023-09-18T09:26:20;21.50;99.90
59847;DHT22;45728;48.788;2.302;2023-09-18T09:28:47;21.70;99.90
59847;DHT22;45728;48.788;2.302;2023-09-18T09:33:52;21.80;99.90
59847;DHT22;45728;48.788;2.302;2023-09-18T09:36:22;22.00;99.90
59847;DHT22;45728;48.788;2.302;2023-09-18T09:38:49;22.30;99.90
59847;DHT22;45728;48.788;2.302;2023-09-18T09:41:20;22.30;99.90
59847;DHT22;45728;48.788;2.302;2023-09-18T09:43:47;22.20;99.90
59847;DHT22;45728;48.788;2.302;2023-09-18T09:46:17;21.90;99.90
59847;DHT22;45728;48.788;2.302;2023-09-18T09:49:01;21.90;99.90
59847;DHT22;45728;48.788;2.302;2023-09-18T09:51:28;21.70;99.90
59847;DHT22;45728;48.788;2.302;2023-09-18T09:53:55;21.60;99.90
59847;DHT22;45728;48.788;2.302;2023-09-18T09:56:46;21.70;99.90
59847;DHT22;45728;48.788;2.302;2023-09-18T09:59:14;22.30;99.90
59847;DHT22;45728;48.788;2.302;2023-09-18T10:01:41;22.50;99.90
59847;DHT22;45728;48.788;2.302;2023-09-18T10:04:13;22.60;99.90
59847;DHT22;45728;48.788;2.302;2023-09-18T10:06:51;22.70;99.90
59847;DHT22;45728;48.788;2.302;2023-09-18T10:09:19;22.90;99.90
59847;DHT22;45728;48.788;2.302;2023-09-18T10:11:52;23.10;99.90
59847;DHT22;45728;48.788;2.302;2023-09-18T10:14:20;22.90;99.90
59847;DHT22;45728;48.788;2.302;2023-09-18T10:16:53;22.80;99.90
59847;DHT22;45728;48.788;2.302;2023-09-18T10:19:58;22.70;99.90
59847;DHT22;45728;48.788;2.302;2023-09-18T10:22:38;22.90;99.90
59847;DHT22;45728;48.788;2.302;2023-09-18T10:25:13;23.00;99.90
59847;DHT22;45728;48.788;2.302;2023-09-18T10:27:46;23.40;99.90
59847;DHT22;45728;48.788;2.302;2023-09-18T10:30:16;23.40;99.90
59847;DHT22;45728;48.788;2.302;2023-09-18T10:32:46;23.50;99.90
59847;DHT22;45728;48.788;2.302;2023-09-18T10:35:14;23.40;99.90
59847;DHT22;45728;48.788;2.302;2023-09-18T10:37:45;23.50;99.90
59847;DHT22;45728;48.788;2.302;2023-09-18T10:40:12;23.60;99.90
59847;DHT22;45728;48.788;2.302;2023-09-18T10:42:40;23.60;99.90
59847;DHT22;45728;48.788;2.302;2023-09-18T10:45:08;23.60;99.90
59847;DHT22;45728;48.788;2.302;2023-09-18T10:47:38;23.60;99.90
59847;DHT22;45728;48.788;2.302;2023-09-18T10:50:05;23.80;99.90
59847;DHT22;45728;48.788;2.302;2023-09-18T10:52:35;23.70;99.90
59847;DHT22;45728;48.788;2.302;2023-09-18T10:55:02;23.60;99.90
59847;DHT22;45728;48.788;2.302;2023-09-18T10:57:36;23.60;99.90
59847;DHT22;45728;48.788;2.302;2023-09-18T11:00:04;23.50;99.90
59847;DHT22;45728;48.788;2.302;2023-09-18T11:02:42;23.40;99.90
59847;DHT22;45728;48.788;2.302;2023-09-18T11:05:08;23.30;99.90
59847;DHT22;45728;48.788;2.302;2023-09-18T11:07:34;23.30;99.90
59847;DHT22;45728;48.788;2.302;2023-09-18T11:10:26;23.30;99.90
59847;DHT22;45728;48.788;2.302;2023-09-18T11:12:53;23.20;99.90
59847;DHT22;45728;48.788;2.302;2023-09-18T11:15:30;23.40;99.90
59847;DHT22;45728;48.788;2.302;2023-09-18T11:18:01;23.50;99.90
59847;DHT22;45728;48.788;2.302;2023-09-18T11:20:28;23.70;99.90
59847;DHT22;45728;48.788;2.302;2023-09-18T11:22:58;23.90;99.90
59847;DHT22;45728;48.788;2.302;2023-09-18T11:28:01;24.10;99.90
59847;DHT22;45728;48.788;2.302;2023-09-18T11:30:29;24.30;99.90
59847;DHT22;45728;48.788;2.302;2023-09-18T11:32:55;24.00;99.90
59847;DHT22;45728;48.788;2.302;2023-09-18T11:35:22;23.80;99.90
59847;DHT22;45728;48.788;2.302;2023-09-18T11:38:03;24.10;99.90
59847;DHT22;45728;48.788;2.302;2023-09-18T11:40:35;24.30;99.90
59847;DHT22;45728;48.788;2.302;2023-09-18T11:43:23;24.40;99.90
59847;DHT22;45728;48.788;2.302;2023-09-18T11:45:59;24.70;99.90
59847;DHT22;45728;48.788;2.302;2023-09-18T11:48:28;25.00;99.90
59847;DHT22;45728;48.788;2.302;2023-09-18T11:50:58;25.20;99.90
59847;DHT22;45728;48.788;2.302;2023-09-18T11:53:27;25.20;99.90
59847;DHT22;45728;48.788;2.302;2023-09-18T11:55:53;24.90;99.90
59847;DHT22;45728;48.788;2.302;2023-09-18T11:58:20;25.00;99.90
59847;DHT22;45728;48.788;2.302;2023-09-18T12:00:50;24.90;99.90
59847;DHT22;45728;48.788;2.302;2023-09-18T12:03:20;24.80;99.90
59847;DHT22;45728;48.788;2.302;2023-09-18T12:05:58;24.80;99.90
59847;DHT22;45728;48.788;2.302;2023-09-18T12:08:25;24.80;99.90
59847;DHT22;45728;48.788;2.302;2023-09-18T12:10:57;25.00;99.90
59847;DHT22;45728;48.788;2.302;2023-09-18T12:13:27;24.70;99.90
59847;DHT22;45728;48.788;2.302;2023-09-18T12:16:03;24.40;99.90
59847;DHT22;45728;48.788;2.302;2023-09-18T12:18:32;23.90;99.90
59847;DHT22;45728;48.788;2.302;2023-09-18T12:21:02;24.10;99.90
59847;DHT22;45728;48.788;2.302;2023-09-18T12:23:37;24.30;99.90
59847;DHT22;45728;48.788;2.302;2023-09-18T12:26:04;24.50;99.90
59847;DHT22;45728;48.788;2.302;2023-09-18T12:28:36;24.70;99.90
59847;DHT22;45728;48.788;2.302;2023-09-18T12:31:03;24.90;99.90
59847;DHT22;45728;48.788;2.302;2023-09-18T12:33:36;25.00;99.90
59847;DHT22;45728;48.788;2.302;2023-09-18T12:36:03;25.00;99.90
59847;DHT22;45728;48.788;2.302;2023-09-18T12:38:31;24.90;99.90
59847;DHT22;45728;48.788;2.302;2023-09-18T12:40:58;24.80;99.90
59847;DHT22;45728;48.788;2.302;2023-09-18T12:43:36;24.40;99.90
59847;DHT22;45728;48.788;2.302;2023-09-18T12:46:05;24.40;99.90
59847;DHT22;45728;48.788;2.302;2023-09-18T12:48:31;23.70;99.90
59847;DHT22;45728;48.788;2.302;2023-09-18T12:51:07;23.20;99.90
59847;DHT22;45728;48.788;2.302;2023-09-18T12:53:34;22.90;99.90
59847;DHT22;45728;48.788;2.302;2023-09-18T12:56:06;22.60;99.90
59847;DHT22;45728;48.788;2.302;2023-09-18T12:58:33;22.70;99.90
59847;DHT22;45728;48.788;2.302;2023-09-18T13:01:04;22.50;99.90
59847;DHT22;45728;48.788;2.302;2023-09-18T13:03:42;22.80;99.90
59847;DHT22;45728;48.788;2.302;2023-09-18T13:06:10;22.90;99.90
59847;DHT22;45728;48.788;2.302;2023-09-18T13:08:37;22.80;99.90
59847;DHT22;45728;48.788;2.302;2023-09-18T13:11:03;22.80;99.90
59847;DHT22;45728;48.788;2.302;2023-09-18T13:13:30;22.80;99.90
59847;DHT22;45728;48.788;2.302;2023-09-18T13:16:00;23.00;99.90
59847;DHT22;45728;48.788;2.302;2023-09-18T13:18:26;23.30;99.90
59847;DHT22;45728;48.788;2.302;2023-09-18T13:20:53;23.50;99.90
59847;DHT22;45728;48.788;2.302;2023-09-18T13:23:20;23.60;99.90
59847;DHT22;45728;48.788;2.302;2023-09-18T13:25:46;23.80;99.90
59847;DHT22;45728;48.788;2.302;2023-09-18T13:28:13;23.70;99.90
59847;DHT22;45728;48.788;2.302;2023-09-18T13:30:41;23.90;99.90
59847;DHT22;45728;48.788;2.302;2023-09-18T13:33:13;24.00;99.90
59847;DHT22;45728;48.788;2.302;2023-09-18T13:35:41;23.90;99.90
59847;DHT22;45728;48.788;2.302;2023-09-18T13:38:08;23.90;99.90
59847;DHT22;45728;48.788;2.302;2023-09-18T13:40:35;23.80;99.90
59847;DHT22;45728;48.788;2.302;2023-09-18T13:43:04;23.70;99.90
59847;DHT22;45728;48.788;2.302;2023-09-18T13:45:32;23.70;99.90
59847;DHT22;45728;48.788;2.302;2023-09-18T13:47:58;23.60;99.90
59847;DHT22;45728;48.788;2.302;2023-09-18T13:50:25;23.80;99.90
59847;DHT22;45728;48.788;2.302;2023-09-18T13:52:51;23.90;99.90
59847;DHT22;45728;48.788;2.302;2023-09-18T13:55:17;23.90;99.90
59847;DHT22;45728;48.788;2.302;2023-09-18T13:57:43;24.10;99.90
59847;DHT22;45728;48.788;2.302;2023-09-18T14:00:09;24.40;99.90
59847;DHT22;45728;48.788;2.302;2023-09-18T14:02:38;24.50;99.90
59847;DHT22;45728;48.788;2.302;2023-09-18T14:05:06;24.50;99.90
59847;DHT22;45728;48.788;2.302;2023-09-18T14:07:32;24.30;99.90
59847;DHT22;45728;48.788;2.302;2023-09-18T14:09:58;24.30;99.90
59847;DHT22;45728;48.788;2.302;2023-09-18T14:12:24;24.40;99.90
59847;DHT22;45728;48.788;2.302;2023-09-18T14:14:50;24.40;99.90
59847;DHT22;45728;48.788;2.302;2023-09-18T14:17:17;24.50;99.90
59847;DHT22;45728;48.788;2.302;2023-09-18T14:19:47;24.50;99.90
59847;DHT22;45728;48.788;2.302;2023-09-18T14:22:14;24.40;99.90
59847;DHT22;45728;48.788;2.302;2023-09-18T14:24:40;24.50;99.90
59847;DHT22;45728;48.788;2.302;2023-09-18T14:27:07;24.40;99.90
59847;DHT22;45728;48.788;2.302;2023-09-18T14:29:33;24.60;99.90
59847;DHT22;45728;48.788;2.302;2023-09-18T14:32:00;24.50;99.90
59847;DHT22;45728;48.788;2.302;2023-09-18T14:34:26;24.60;99.90
59847;DHT22;45728;48.788;2.302;2023-09-18T14:36:52;24.40;99.90
59847;DHT22;45728;48.788;2.302;2023-09-18T14:39:38;24.50;99.90
59847;DHT22;45728;48.788;2.302;2023-09-18T14:42:04;24.60;99.90
59847;DHT22;45728;48.788;2.302;2023-09-18T14:44:30;24.80;99.90
59847;DHT22;45728;48.788;2.302;2023-09-18T14:46:57;24.70;99.90
59847;DHT22;45728;48.788;2.302;2023-09-18T14:49:23;24.50;99.90
59847;DHT22;45728;48.788;2.302;2023-09-18T14:51:49;24.40;99.90
59847;DHT22;45728;48.788;2.302;2023-09-18T14:54:18;24.20;99.90
59847;DHT22;45728;48.788;2.302;2023-09-18T14:56:44;24.20;99.90
59847;DHT22;45728;48.788;2.302;2023-09-18T14:59:12;24.10;99.90
59847;DHT22;45728;48.788;2.302;2023-09-18T15:01:38;23.90;99.90
59847;DHT22;45728;48.788;2.302;2023-09-18T15:04:04;23.90;99.90
59847;DHT22;45728;48.788;2.302;2023-09-18T15:06:31;23.80;99.90
59847;DHT22;45728;48.788;2.302;2023-09-18T15:08:57;23.80;99.90
59847;DHT22;45728;48.788;2.302;2023-09-18T15:11:23;23.70;99.90
59847;DHT22;45728;48.788;2.302;2023-09-18T15:13:49;23.80;99.90
59847;DHT22;45728;48.788;2.302;2023-09-18T15:16:15;23.70;99.90
59847;DHT22;45728;48.788;2.302;2023-09-18T15:18:42;23.70;99.90
59847;DHT22;45728;48.788;2.302;2023-09-18T15:21:09;23.50;99.90
59847;DHT22;45728;48.788;2.302;2023-09-18T15:23:36;23.50;99.90
59847;DHT22;45728;48.788;2.302;2023-09-18T15:26:02;23.50;99.90
59847;DHT22;45728;48.788;2.302;2023-09-18T15:28:28;23.50;99.90
59847;DHT22;45728;48.788;2.302;2023-09-18T15:30:55;23.50;99.90
59847;DHT22;45728;48.788;2.302;2023-09-18T15:33:22;23.50;99.90
59847;DHT22;45728;48.788;2.302;2023-09-18T15:35:49;23.40;99.90
59847;DHT22;45728;48.788;2.302;2023-09-18T15:38:15;23.30;99.90
59847;DHT22;45728;48.788;2.302;2023-09-18T15:40:41;23.40;99.90
59847;DHT22;45728;48.788;2.302;2023-09-18T15:43:07;23.30;99.90